sensor_id;sensor_type;location;lat;lon;timestamp;P1;durP1;ratioP1;P2;durP2;ratioP2
51660;SDS011;37741;49.748;8.490;2023-12-20T00:01:21;3.38;;;2.60;;
51660;SDS011;37741;49.748;8.490;2023-12-20T00:03:47;4.85;;;2.92;;
51660;SDS011;37741;49.748;8.490;2023-12-20T00:06:13;4.32;;;2.30;;
51660;SDS011;37741;49.748;8.490;2023-12-20T00:08:38;2.90;;;2.30;;
51660;SDS011;37741;49.748;8.490;2023-12-20T00:11:04;3.38;;;2.00;;
51660;SDS011;37741;49.748;8.490;2023-12-20T00:13:29;3.67;;;2.50;;
51660;SDS011;37741;49.748;8.490;2023-12-20T00:15:55;5.45;;;2.65;;
51660;SDS011;37741;49.748;8.490;2023-12-20T00:18:21;4.43;;;3.03;;
51660;SDS011;37741;49.748;8.490;2023-12-20T00:20:46;4.65;;;2.67;;
51660;SDS011;37741;49.748;8.490;2023-12-20T00:23:12;3.83;;;2.50;;
51660;SDS011;37741;49.748;8.490;2023-12-20T00:25:37;4.32;;;2.38;;
51660;SDS011;37741;49.748;8.490;2023-12-20T00:28:03;3.50;;;2.33;;
51660;SDS011;37741;49.748;8.490;2023-12-20T00:30:29;3.78;;;2.40;;
51660;SDS011;37741;49.748;8.490;2023-12-20T00:32:55;3.95;;;2.35;;
51660;SDS011;37741;49.748;8.490;2023-12-20T00:35:21;3.47;;;2.30;;
51660;SDS011;37741;49.748;8.490;2023-12-20T00:37:47;3.28;;;2.03;;
51660;SDS011;37741;49.748;8.490;2023-12-20T00:40:12;3.15;;;1.95;;
51660;SDS011;37741;49.748;8.490;2023-12-20T00:42:38;4.47;;;2.45;;
51660;SDS011;37741;49.748;8.490;2023-12-20T00:45:04;3.30;;;2.05;;
51660;SDS011;37741;49.748;8.490;2023-12-20T00:47:30;2.90;;;2.05;;
51660;SDS011;37741;49.748;8.490;2023-12-20T00:49:56;3.15;;;2.05;;
51660;SDS011;37741;49.748;8.490;2023-12-20T00:52:22;3.13;;;2.00;;
51660;SDS011;37741;49.748;8.490;2023-12-20T00:54:48;3.00;;;1.83;;
51660;SDS011;37741;49.748;8.490;2023-12-20T00:57:14;3.60;;;2.00;;
51660;SDS011;37741;49.748;8.490;2023-12-20T00:59:40;2.90;;;1.80;;
51660;SDS011;37741;49.748;8.490;2023-12-20T01:02:05;3.40;;;1.70;;
51660;SDS011;37741;49.748;8.490;2023-12-20T01:04:31;3.22;;;1.98;;
51660;SDS011;37741;49.748;8.490;2023-12-20T01:06:57;2.75;;;1.40;;
51660;SDS011;37741;49.748;8.490;2023-12-20T01:09:23;3.17;;;1.88;;
51660;SDS011;37741;49.748;8.490;2023-12-20T01:11:51;3.03;;;1.77;;
51660;SDS011;37741;49.748;8.490;2023-12-20T01:14:17;2.92;;;1.80;;
51660;SDS011;37741;49.748;8.490;2023-12-20T01:16:43;3.00;;;1.90;;
51660;SDS011;37741;49.748;8.490;2023-12-20T01:19:09;4.00;;;1.80;;
51660;SDS011;37741;49.748;8.490;2023-12-20T01:21:35;2.88;;;1.48;;
51660;SDS011;37741;49.748;8.490;2023-12-20T01:24:00;3.25;;;1.92;;
51660;SDS011;37741;49.748;8.490;2023-12-20T01:26:26;2.75;;;1.83;;
51660;SDS011;37741;49.748;8.490;2023-12-20T01:28:51;2.28;;;1.30;;
51660;SDS011;37741;49.748;8.490;2023-12-20T01:31:17;2.67;;;1.60;;
51660;SDS011;37741;49.748;8.490;2023-12-20T01:33:43;3.92;;;1.73;;
51660;SDS011;37741;49.748;8.490;2023-12-20T01:36:08;2.70;;;1.50;;
51660;SDS011;37741;49.748;8.490;2023-12-20T01:38:34;2.63;;;1.73;;
51660;SDS011;37741;49.748;8.490;2023-12-20T01:41:00;2.28;;;1.60;;
51660;SDS011;37741;49.748;8.490;2023-12-20T01:43:25;4.22;;;1.50;;
51660;SDS011;37741;49.748;8.490;2023-12-20T01:45:51;2.45;;;1.33;;
51660;SDS011;37741;49.748;8.490;2023-12-20T01:48:17;4.22;;;1.75;;
51660;SDS011;37741;49.748;8.490;2023-12-20T01:50:44;2.53;;;1.30;;
51660;SDS011;37741;49.748;8.490;2023-12-20T01:53:10;2.95;;;1.60;;
51660;SDS011;37741;49.748;8.490;2023-12-20T01:55:38;2.92;;;1.70;;
51660;SDS011;37741;49.748;8.490;2023-12-20T01:58:06;2.30;;;1.45;;
51660;SDS011;37741;49.748;8.490;2023-12-20T02:00:33;2.67;;;1.52;;
51660;SDS011;37741;49.748;8.490;2023-12-20T02:03:00;2.72;;;1.52;;
51660;SDS011;37741;49.748;8.490;2023-12-20T02:05:27;2.78;;;1.50;;
51660;SDS011;37741;49.748;8.490;2023-12-20T02:07:54;2.65;;;1.35;;
51660;SDS011;37741;49.748;8.490;2023-12-20T02:10:20;2.78;;;1.67;;
51660;SDS011;37741;49.748;8.490;2023-12-20T02:12:46;2.65;;;1.58;;
51660;SDS011;37741;49.748;8.490;2023-12-20T02:15:11;2.88;;;1.27;;
51660;SDS011;37741;49.748;8.490;2023-12-20T02:17:37;3.33;;;1.08;;
51660;SDS011;37741;49.748;8.490;2023-12-20T02:20:05;3.08;;;1.40;;
51660;SDS011;37741;49.748;8.490;2023-12-20T02:22:31;2.17;;;1.23;;
51660;SDS011;37741;49.748;8.490;2023-12-20T02:24:57;2.15;;;1.25;;
51660;SDS011;37741;49.748;8.490;2023-12-20T02:27:23;2.17;;;1.20;;
51660;SDS011;37741;49.748;8.490;2023-12-20T02:29:49;2.75;;;1.60;;
51660;SDS011;37741;49.748;8.490;2023-12-20T02:32:15;2.55;;;1.50;;
51660;SDS011;37741;49.748;8.490;2023-12-20T02:34:42;1.90;;;0.95;;
51660;SDS011;37741;49.748;8.490;2023-12-20T02:37:08;3.15;;;1.75;;
51660;SDS011;37741;49.748;8.490;2023-12-20T02:39:33;2.30;;;1.17;;
51660;SDS011;37741;49.748;8.490;2023-12-20T02:41:59;2.60;;;1.30;;
51660;SDS011;37741;49.748;8.490;2023-12-20T02:44:25;3.65;;;1.25;;
51660;SDS011;37741;49.748;8.490;2023-12-20T02:46:50;2.47;;;1.38;;
51660;SDS011;37741;49.748;8.490;2023-12-20T02:49:16;3.38;;;1.33;;
51660;SDS011;37741;49.748;8.490;2023-12-20T02:51:41;1.85;;;0.90;;
51660;SDS011;37741;49.748;8.490;2023-12-20T02:54:07;1.85;;;1.02;;
51660;SDS011;37741;49.748;8.490;2023-12-20T02:56:33;2.50;;;1.15;;
51660;SDS011;37741;49.748;8.490;2023-12-20T02:58:58;1.95;;;1.10;;
51660;SDS011;37741;49.748;8.490;2023-12-20T03:01:24;3.55;;;1.55;;
51660;SDS011;37741;49.748;8.490;2023-12-20T03:03:50;1.77;;;1.35;;
51660;SDS011;37741;49.748;8.490;2023-12-20T03:06:18;2.08;;;1.25;;
51660;SDS011;37741;49.748;8.490;2023-12-20T03:08:44;3.05;;;1.52;;
51660;SDS011;37741;49.748;8.490;2023-12-20T03:11:10;2.28;;;1.17;;
51660;SDS011;37741;49.748;8.490;2023-12-20T03:13:36;2.65;;;1.13;;
51660;SDS011;37741;49.748;8.490;2023-12-20T03:16:07;2.33;;;1.10;;
51660;SDS011;37741;49.748;8.490;2023-12-20T03:18:34;1.95;;;1.00;;
51660;SDS011;37741;49.748;8.490;2023-12-20T03:20:59;2.08;;;0.90;;
51660;SDS011;37741;49.748;8.490;2023-12-20T03:23:25;1.88;;;1.05;;
51660;SDS011;37741;49.748;8.490;2023-12-20T03:25:52;1.90;;;1.20;;
51660;SDS011;37741;49.748;8.490;2023-12-20T03:28:17;1.98;;;1.05;;
51660;SDS011;37741;49.748;8.490;2023-12-20T03:30:44;1.98;;;1.10;;
51660;SDS011;37741;49.748;8.490;2023-12-20T03:33:09;2.05;;;0.93;;
51660;SDS011;37741;49.748;8.490;2023-12-20T03:35:37;2.10;;;1.05;;
51660;SDS011;37741;49.748;8.490;2023-12-20T03:38:03;2.25;;;1.08;;
51660;SDS011;37741;49.748;8.490;2023-12-20T03:40:29;1.80;;;0.98;;
51660;SDS011;37741;49.748;8.490;2023-12-20T03:42:54;1.90;;;1.08;;
51660;SDS011;37741;49.748;8.490;2023-12-20T03:45:20;2.78;;;0.82;;
51660;SDS011;37741;49.748;8.490;2023-12-20T03:47:45;2.10;;;1.08;;
51660;SDS011;37741;49.748;8.490;2023-12-20T03:50:11;2.00;;;0.90;;
51660;SDS011;37741;49.748;8.490;2023-12-20T03:52:37;2.38;;;0.90;;
51660;SDS011;37741;49.748;8.490;2023-12-20T03:55:02;1.45;;;0.90;;
51660;SDS011;37741;49.748;8.490;2023-12-20T03:57:28;2.05;;;1.02;;
51660;SDS011;37741;49.748;8.490;2023-12-20T03:59:54;1.45;;;0.70;;
51660;SDS011;37741;49.748;8.490;2023-12-20T04:02:19;2.40;;;1.10;;
51660;SDS011;37741;49.748;8.490;2023-12-20T04:04:45;2.38;;;1.10;;
51660;SDS011;37741;49.748;8.490;2023-12-20T04:07:10;1.83;;;1.05;;
51660;SDS011;37741;49.748;8.490;2023-12-20T04:09:36;1.52;;;0.82;;
51660;SDS011;37741;49.748;8.490;2023-12-20T04:12:01;1.60;;;0.88;;
51660;SDS011;37741;49.748;8.490;2023-12-20T04:14:27;2.03;;;1.00;;
51660;SDS011;37741;49.748;8.490;2023-12-20T04:16:53;3.45;;;1.20;;
51660;SDS011;37741;49.748;8.490;2023-12-20T04:19:19;2.13;;;1.10;;
51660;SDS011;37741;49.748;8.490;2023-12-20T04:21:44;1.52;;;0.90;;
51660;SDS011;37741;49.748;8.490;2023-12-20T04:24:10;2.83;;;1.63;;
51660;SDS011;37741;49.748;8.490;2023-12-20T04:26:35;1.83;;;1.00;;
51660;SDS011;37741;49.748;8.490;2023-12-20T04:29:01;2.20;;;1.00;;
51660;SDS011;37741;49.748;8.490;2023-12-20T04:31:27;2.97;;;1.40;;
51660;SDS011;37741;49.748;8.490;2023-12-20T04:33:52;1.90;;;1.02;;
51660;SDS011;37741;49.748;8.490;2023-12-20T04:36:18;2.60;;;1.30;;
51660;SDS011;37741;49.748;8.490;2023-12-20T04:38:44;3.17;;;1.25;;
51660;SDS011;37741;49.748;8.490;2023-12-20T04:41:09;2.25;;;1.40;;
51660;SDS011;37741;49.748;8.490;2023-12-20T04:43:35;2.45;;;1.17;;
51660;SDS011;37741;49.748;8.490;2023-12-20T04:46:00;1.98;;;1.20;;
51660;SDS011;37741;49.748;8.490;2023-12-20T04:48:26;2.45;;;1.40;;
51660;SDS011;37741;49.748;8.490;2023-12-20T04:50:51;2.50;;;1.40;;
51660;SDS011;37741;49.748;8.490;2023-12-20T04:53:17;2.35;;;1.30;;
51660;SDS011;37741;49.748;8.490;2023-12-20T04:55:43;3.47;;;1.38;;
51660;SDS011;37741;49.748;8.490;2023-12-20T04:58:09;2.10;;;1.27;;
51660;SDS011;37741;49.748;8.490;2023-12-20T05:00:34;3.42;;;1.40;;
51660;SDS011;37741;49.748;8.490;2023-12-20T05:03:00;2.33;;;1.45;;
51660;SDS011;37741;49.748;8.490;2023-12-20T05:05:25;2.30;;;1.35;;
51660;SDS011;37741;49.748;8.490;2023-12-20T05:07:51;2.60;;;1.50;;
51660;SDS011;37741;49.748;8.490;2023-12-20T05:10:17;2.33;;;1.35;;
51660;SDS011;37741;49.748;8.490;2023-12-20T05:12:43;1.85;;;1.00;;
51660;SDS011;37741;49.748;8.490;2023-12-20T05:15:08;1.90;;;1.20;;
51660;SDS011;37741;49.748;8.490;2023-12-20T05:17:34;2.05;;;1.33;;
51660;SDS011;37741;49.748;8.490;2023-12-20T05:20:00;2.40;;;1.33;;
51660;SDS011;37741;49.748;8.490;2023-12-20T05:22:25;2.35;;;1.50;;
51660;SDS011;37741;49.748;8.490;2023-12-20T05:24:52;2.53;;;1.33;;
51660;SDS011;37741;49.748;8.490;2023-12-20T05:27:18;2.97;;;1.65;;
51660;SDS011;37741;49.748;8.490;2023-12-20T05:29:44;2.50;;;1.50;;
51660;SDS011;37741;49.748;8.490;2023-12-20T05:32:09;2.33;;;1.42;;
51660;SDS011;37741;49.748;8.490;2023-12-20T05:34:35;2.42;;;1.27;;
51660;SDS011;37741;49.748;8.490;2023-12-20T05:37:01;3.00;;;1.25;;
51660;SDS011;37741;49.748;8.490;2023-12-20T05:39:27;2.30;;;1.35;;
51660;SDS011;37741;49.748;8.490;2023-12-20T05:41:53;2.67;;;1.30;;
51660;SDS011;37741;49.748;8.490;2023-12-20T05:44:18;1.30;;;0.80;;
51660;SDS011;37741;49.748;8.490;2023-12-20T05:46:44;3.08;;;1.25;;
51660;SDS011;37741;49.748;8.490;2023-12-20T05:49:09;2.00;;;1.00;;
51660;SDS011;37741;49.748;8.490;2023-12-20T05:51:36;4.00;;;1.40;;
51660;SDS011;37741;49.748;8.490;2023-12-20T05:54:01;2.35;;;0.98;;
51660;SDS011;37741;49.748;8.490;2023-12-20T05:56:27;1.85;;;1.00;;
51660;SDS011;37741;49.748;8.490;2023-12-20T05:58:52;3.15;;;1.52;;
51660;SDS011;37741;49.748;8.490;2023-12-20T06:01:18;2.53;;;1.20;;
51660;SDS011;37741;49.748;8.490;2023-12-20T06:03:44;3.38;;;1.30;;
51660;SDS011;37741;49.748;8.490;2023-12-20T06:06:11;1.98;;;1.00;;
51660;SDS011;37741;49.748;8.490;2023-12-20T06:08:37;2.05;;;1.10;;
51660;SDS011;37741;49.748;8.490;2023-12-20T06:11:03;2.75;;;1.55;;
51660;SDS011;37741;49.748;8.490;2023-12-20T06:13:30;2.47;;;1.33;;
51660;SDS011;37741;49.748;8.490;2023-12-20T06:15:56;1.98;;;1.27;;
51660;SDS011;37741;49.748;8.490;2023-12-20T06:18:22;3.70;;;1.48;;
51660;SDS011;37741;49.748;8.490;2023-12-20T06:20:47;2.53;;;1.40;;
51660;SDS011;37741;49.748;8.490;2023-12-20T06:23:13;2.22;;;1.10;;
51660;SDS011;37741;49.748;8.490;2023-12-20T06:25:39;2.13;;;1.13;;
51660;SDS011;37741;49.748;8.490;2023-12-20T06:28:04;2.08;;;1.02;;
51660;SDS011;37741;49.748;8.490;2023-12-20T06:30:31;1.73;;;0.88;;
51660;SDS011;37741;49.748;8.490;2023-12-20T06:32:57;2.22;;;1.00;;
51660;SDS011;37741;49.748;8.490;2023-12-20T06:35:23;2.38;;;1.20;;
51660;SDS011;37741;49.748;8.490;2023-12-20T06:37:50;1.83;;;1.02;;
51660;SDS011;37741;49.748;8.490;2023-12-20T06:40:15;4.38;;;1.08;;
51660;SDS011;37741;49.748;8.490;2023-12-20T06:42:41;2.13;;;1.00;;
51660;SDS011;37741;49.748;8.490;2023-12-20T06:45:07;3.05;;;1.20;;
51660;SDS011;37741;49.748;8.490;2023-12-20T06:47:33;1.85;;;1.10;;
51660;SDS011;37741;49.748;8.490;2023-12-20T06:49:59;1.90;;;1.20;;
51660;SDS011;37741;49.748;8.490;2023-12-20T06:52:25;2.20;;;0.90;;
51660;SDS011;37741;49.748;8.490;2023-12-20T06:54:51;3.15;;;1.40;;
51660;SDS011;37741;49.748;8.490;2023-12-20T06:57:17;2.10;;;1.15;;
51660;SDS011;37741;49.748;8.490;2023-12-20T06:59:43;2.20;;;1.05;;
51660;SDS011;37741;49.748;8.490;2023-12-20T07:02:09;2.67;;;1.38;;
51660;SDS011;37741;49.748;8.490;2023-12-20T07:04:38;2.58;;;1.27;;
51660;SDS011;37741;49.748;8.490;2023-12-20T07:07:05;2.38;;;1.25;;
51660;SDS011;37741;49.748;8.490;2023-12-20T07:09:32;1.52;;;0.93;;
51660;SDS011;37741;49.748;8.490;2023-12-20T07:11:57;3.70;;;1.05;;
51660;SDS011;37741;49.748;8.490;2023-12-20T07:14:23;3.47;;;1.40;;
51660;SDS011;37741;49.748;8.490;2023-12-20T07:16:49;2.25;;;1.13;;
51660;SDS011;37741;49.748;8.490;2023-12-20T07:19:14;2.05;;;1.15;;
51660;SDS011;37741;49.748;8.490;2023-12-20T07:21:40;2.35;;;1.35;;
51660;SDS011;37741;49.748;8.490;2023-12-20T07:24:06;6.70;;;1.60;;
51660;SDS011;37741;49.748;8.490;2023-12-20T07:26:31;2.88;;;1.30;;
51660;SDS011;37741;49.748;8.490;2023-12-20T07:28:57;4.03;;;1.70;;
51660;SDS011;37741;49.748;8.490;2023-12-20T07:31:23;4.00;;;1.38;;
51660;SDS011;37741;49.748;8.490;2023-12-20T07:33:49;4.80;;;1.50;;
51660;SDS011;37741;49.748;8.490;2023-12-20T07:36:15;2.38;;;1.17;;
51660;SDS011;37741;49.748;8.490;2023-12-20T07:38:40;2.28;;;1.30;;
51660;SDS011;37741;49.748;8.490;2023-12-20T07:41:09;3.45;;;1.40;;
51660;SDS011;37741;49.748;8.490;2023-12-20T07:43:37;4.70;;;1.42;;
51660;SDS011;37741;49.748;8.490;2023-12-20T07:46:06;2.50;;;1.40;;
51660;SDS011;37741;49.748;8.490;2023-12-20T07:48:33;1.90;;;1.30;;
51660;SDS011;37741;49.748;8.490;2023-12-20T07:51:02;4.20;;;1.48;;
51660;SDS011;37741;49.748;8.490;2023-12-20T07:53:28;2.67;;;1.15;;
51660;SDS011;37741;49.748;8.490;2023-12-20T07:55:54;1.83;;;0.90;;
51660;SDS011;37741;49.748;8.490;2023-12-20T07:58:20;3.67;;;1.65;;
51660;SDS011;37741;49.748;8.490;2023-12-20T08:00:46;2.45;;;1.55;;
51660;SDS011;37741;49.748;8.490;2023-12-20T08:03:11;3.78;;;1.48;;
51660;SDS011;37741;49.748;8.490;2023-12-20T08:05:37;3.05;;;1.40;;
51660;SDS011;37741;49.748;8.490;2023-12-20T08:08:05;2.22;;;1.20;;
51660;SDS011;37741;49.748;8.490;2023-12-20T08:10:31;1.98;;;1.20;;
51660;SDS011;37741;49.748;8.490;2023-12-20T08:12:57;2.45;;;1.30;;
51660;SDS011;37741;49.748;8.490;2023-12-20T08:15:22;3.45;;;1.30;;
51660;SDS011;37741;49.748;8.490;2023-12-20T08:17:48;4.38;;;1.13;;
51660;SDS011;37741;49.748;8.490;2023-12-20T08:20:15;2.47;;;1.08;;
51660;SDS011;37741;49.748;8.490;2023-12-20T08:22:41;7.47;;;1.33;;
51660;SDS011;37741;49.748;8.490;2023-12-20T08:25:07;4.75;;;2.10;;
51660;SDS011;37741;49.748;8.490;2023-12-20T08:27:33;4.22;;;1.25;;
51660;SDS011;37741;49.748;8.490;2023-12-20T08:30:03;2.33;;;1.10;;
51660;SDS011;37741;49.748;8.490;2023-12-20T08:32:29;3.28;;;1.38;;
51660;SDS011;37741;49.748;8.490;2023-12-20T08:34:54;2.80;;;1.10;;
51660;SDS011;37741;49.748;8.490;2023-12-20T08:37:20;5.35;;;2.35;;
51660;SDS011;37741;49.748;8.490;2023-12-20T08:39:45;4.38;;;1.25;;
51660;SDS011;37741;49.748;8.490;2023-12-20T08:42:11;2.97;;;1.67;;
51660;SDS011;37741;49.748;8.490;2023-12-20T08:44:36;2.65;;;1.25;;
51660;SDS011;37741;49.748;8.490;2023-12-20T08:47:02;2.28;;;1.17;;
51660;SDS011;37741;49.748;8.490;2023-12-20T08:49:28;2.08;;;1.00;;
51660;SDS011;37741;49.748;8.490;2023-12-20T08:51:54;3.50;;;1.35;;
51660;SDS011;37741;49.748;8.490;2023-12-20T08:54:19;8.10;;;1.83;;
51660;SDS011;37741;49.748;8.490;2023-12-20T08:56:45;3.58;;;1.35;;
51660;SDS011;37741;49.748;8.490;2023-12-20T08:59:11;5.00;;;1.50;;
51660;SDS011;37741;49.748;8.490;2023-12-20T09:01:37;5.65;;;1.45;;
51660;SDS011;37741;49.748;8.490;2023-12-20T09:04:02;4.20;;;1.42;;
51660;SDS011;37741;49.748;8.490;2023-12-20T09:06:28;5.57;;;1.95;;
51660;SDS011;37741;49.748;8.490;2023-12-20T09:08:54;5.70;;;1.45;;
51660;SDS011;37741;49.748;8.490;2023-12-20T09:11:19;4.68;;;1.48;;
51660;SDS011;37741;49.748;8.490;2023-12-20T09:13:45;6.45;;;2.92;;
51660;SDS011;37741;49.748;8.490;2023-12-20T09:16:11;4.65;;;1.48;;
51660;SDS011;37741;49.748;8.490;2023-12-20T09:18:38;5.25;;;1.83;;
51660;SDS011;37741;49.748;8.490;2023-12-20T09:21:03;3.92;;;1.70;;
51660;SDS011;37741;49.748;8.490;2023-12-20T09:23:29;5.28;;;1.45;;
51660;SDS011;37741;49.748;8.490;2023-12-20T09:25:55;7.70;;;1.83;;
51660;SDS011;37741;49.748;8.490;2023-12-20T09:28:20;3.85;;;1.45;;
51660;SDS011;37741;49.748;8.490;2023-12-20T09:30:46;3.75;;;1.67;;
51660;SDS011;37741;49.748;8.490;2023-12-20T09:33:14;7.35;;;1.75;;
51660;SDS011;37741;49.748;8.490;2023-12-20T09:35:39;5.75;;;1.83;;
51660;SDS011;37741;49.748;8.490;2023-12-20T09:38:05;4.78;;;1.58;;
51660;SDS011;37741;49.748;8.490;2023-12-20T09:40:32;5.20;;;2.42;;
51660;SDS011;37741;49.748;8.490;2023-12-20T09:43:06;5.63;;;1.95;;
51660;SDS011;37741;49.748;8.490;2023-12-20T09:45:36;4.00;;;1.63;;
51660;SDS011;37741;49.748;8.490;2023-12-20T09:48:03;3.20;;;1.65;;
51660;SDS011;37741;49.748;8.490;2023-12-20T09:50:30;5.35;;;1.70;;
51660;SDS011;37741;49.748;8.490;2023-12-20T09:52:57;5.68;;;3.03;;
51660;SDS011;37741;49.748;8.490;2023-12-20T09:55:25;4.35;;;1.50;;
51660;SDS011;37741;49.748;8.490;2023-12-20T09:57:53;10.30;;;1.70;;
51660;SDS011;37741;49.748;8.490;2023-12-20T10:00:19;6.53;;;2.00;;
51660;SDS011;37741;49.748;8.490;2023-12-20T10:02:49;3.88;;;2.13;;
51660;SDS011;37741;49.748;8.490;2023-12-20T10:05:20;6.03;;;2.20;;
51660;SDS011;37741;49.748;8.490;2023-12-20T10:07:52;5.53;;;2.20;;
51660;SDS011;37741;49.748;8.490;2023-12-20T10:10:18;7.72;;;2.47;;
51660;SDS011;37741;49.748;8.490;2023-12-20T10:15:29;7.20;;;2.70;;
51660;SDS011;37741;49.748;8.490;2023-12-20T10:17:55;6.00;;;1.95;;
51660;SDS011;37741;49.748;8.490;2023-12-20T10:20:21;4.47;;;2.00;;
51660;SDS011;37741;49.748;8.490;2023-12-20T10:22:47;4.35;;;1.90;;
51660;SDS011;37741;49.748;8.490;2023-12-20T10:25:14;5.15;;;2.08;;
51660;SDS011;37741;49.748;8.490;2023-12-20T10:27:39;5.07;;;2.28;;
51660;SDS011;37741;49.748;8.490;2023-12-20T10:30:07;5.32;;;2.65;;
51660;SDS011;37741;49.748;8.490;2023-12-20T10:32:33;4.40;;;1.77;;
51660;SDS011;37741;49.748;8.490;2023-12-20T10:34:59;3.67;;;1.70;;
51660;SDS011;37741;49.748;8.490;2023-12-20T10:37:25;3.47;;;1.50;;
51660;SDS011;37741;49.748;8.490;2023-12-20T10:39:51;7.32;;;2.15;;
51660;SDS011;37741;49.748;8.490;2023-12-20T10:42:21;4.28;;;1.77;;
51660;SDS011;37741;49.748;8.490;2023-12-20T10:44:47;6.75;;;2.22;;
51660;SDS011;37741;49.748;8.490;2023-12-20T10:47:16;7.22;;;3.05;;
51660;SDS011;37741;49.748;8.490;2023-12-20T10:49:42;10.75;;;2.22;;
51660;SDS011;37741;49.748;8.490;2023-12-20T10:52:09;7.53;;;1.98;;
51660;SDS011;37741;49.748;8.490;2023-12-20T10:54:36;4.07;;;1.60;;
51660;SDS011;37741;49.748;8.490;2023-12-20T10:57:03;7.15;;;1.77;;
51660;SDS011;37741;49.748;8.490;2023-12-20T10:59:30;6.57;;;1.90;;
51660;SDS011;37741;49.748;8.490;2023-12-20T11:01:58;6.47;;;1.92;;
51660;SDS011;37741;49.748;8.490;2023-12-20T11:04:34;7.30;;;1.65;;
51660;SDS011;37741;49.748;8.490;2023-12-20T11:07:25;7.40;;;2.10;;
51660;SDS011;37741;49.748;8.490;2023-12-20T11:09:59;4.38;;;1.60;;
51660;SDS011;37741;49.748;8.490;2023-12-20T11:12:41;8.20;;;1.80;;
51660;SDS011;37741;49.748;8.490;2023-12-20T11:15:29;4.55;;;1.83;;
51660;SDS011;37741;49.748;8.490;2023-12-20T11:17:55;6.18;;;2.40;;
51660;SDS011;37741;49.748;8.490;2023-12-20T11:20:35;9.18;;;3.10;;
51660;SDS011;37741;49.748;8.490;2023-12-20T11:23:01;4.30;;;1.92;;
51660;SDS011;37741;49.748;8.490;2023-12-20T11:25:27;6.03;;;2.13;;
51660;SDS011;37741;49.748;8.490;2023-12-20T11:30:50;9.60;;;2.40;;
51660;SDS011;37741;49.748;8.490;2023-12-20T11:33:17;9.18;;;3.00;;
51660;SDS011;37741;49.748;8.490;2023-12-20T11:35:50;7.05;;;2.30;;
51660;SDS011;37741;49.748;8.490;2023-12-20T11:38:19;9.43;;;2.55;;
51660;SDS011;37741;49.748;8.490;2023-12-20T11:40:47;8.73;;;2.40;;
51660;SDS011;37741;49.748;8.490;2023-12-20T11:46:04;5.70;;;2.45;;
51660;SDS011;37741;49.748;8.490;2023-12-20T11:48:31;5.55;;;2.47;;
51660;SDS011;37741;49.748;8.490;2023-12-20T11:50:57;8.98;;;3.85;;
51660;SDS011;37741;49.748;8.490;2023-12-20T11:53:24;8.07;;;2.63;;
51660;SDS011;37741;49.748;8.490;2023-12-20T11:55:49;5.10;;;2.45;;
51660;SDS011;37741;49.748;8.490;2023-12-20T11:58:15;4.72;;;2.60;;
51660;SDS011;37741;49.748;8.490;2023-12-20T12:00:42;9.15;;;3.88;;
51660;SDS011;37741;49.748;8.490;2023-12-20T12:03:08;11.55;;;3.22;;
51660;SDS011;37741;49.748;8.490;2023-12-20T12:05:34;8.27;;;2.78;;
51660;SDS011;37741;49.748;8.490;2023-12-20T12:08:01;5.63;;;2.78;;
51660;SDS011;37741;49.748;8.490;2023-12-20T12:10:27;4.90;;;2.42;;
51660;SDS011;37741;49.748;8.490;2023-12-20T12:12:53;9.75;;;2.80;;
51660;SDS011;37741;49.748;8.490;2023-12-20T12:15:19;5.35;;;2.55;;
51660;SDS011;37741;49.748;8.490;2023-12-20T12:17:52;7.25;;;2.75;;
51660;SDS011;37741;49.748;8.490;2023-12-20T12:20:19;9.27;;;3.10;;
51660;SDS011;37741;49.748;8.490;2023-12-20T12:22:45;5.95;;;2.58;;
51660;SDS011;37741;49.748;8.490;2023-12-20T12:25:12;6.95;;;2.55;;
51660;SDS011;37741;49.748;8.490;2023-12-20T12:27:42;9.63;;;3.00;;
51660;SDS011;37741;49.748;8.490;2023-12-20T12:30:08;8.20;;;3.22;;
51660;SDS011;37741;49.748;8.490;2023-12-20T12:32:35;5.10;;;2.47;;
51660;SDS011;37741;49.748;8.490;2023-12-20T12:35:04;5.90;;;3.30;;
51660;SDS011;37741;49.748;8.490;2023-12-20T12:37:33;6.10;;;2.35;;
51660;SDS011;37741;49.748;8.490;2023-12-20T12:40:04;6.80;;;2.72;;
51660;SDS011;37741;49.748;8.490;2023-12-20T12:42:30;4.82;;;3.00;;
51660;SDS011;37741;49.748;8.490;2023-12-20T12:44:57;7.40;;;3.25;;
51660;SDS011;37741;49.748;8.490;2023-12-20T12:47:22;7.45;;;2.67;;
51660;SDS011;37741;49.748;8.490;2023-12-20T12:49:49;10.25;;;2.78;;
51660;SDS011;37741;49.748;8.490;2023-12-20T12:52:17;6.93;;;3.28;;
51660;SDS011;37741;49.748;8.490;2023-12-20T12:54:42;8.38;;;3.80;;
51660;SDS011;37741;49.748;8.490;2023-12-20T12:57:09;6.38;;;2.45;;
51660;SDS011;37741;49.748;8.490;2023-12-20T12:59:36;7.13;;;2.63;;
51660;SDS011;37741;49.748;8.490;2023-12-20T13:02:01;5.00;;;2.60;;
51660;SDS011;37741;49.748;8.490;2023-12-20T13:04:27;10.20;;;3.38;;
51660;SDS011;37741;49.748;8.490;2023-12-20T13:06:52;7.75;;;3.30;;
51660;SDS011;37741;49.748;8.490;2023-12-20T13:09:18;5.20;;;2.58;;
51660;SDS011;37741;49.748;8.490;2023-12-20T13:11:44;6.47;;;2.33;;
51660;SDS011;37741;49.748;8.490;2023-12-20T13:14:10;4.43;;;2.33;;
51660;SDS011;37741;49.748;8.490;2023-12-20T13:16:40;6.43;;;2.85;;
51660;SDS011;37741;49.748;8.490;2023-12-20T13:19:06;10.00;;;2.55;;
51660;SDS011;37741;49.748;8.490;2023-12-20T13:21:32;8.27;;;3.15;;
51660;SDS011;37741;49.748;8.490;2023-12-20T13:23:58;5.93;;;2.70;;
51660;SDS011;37741;49.748;8.490;2023-12-20T13:26:23;7.55;;;3.25;;
51660;SDS011;37741;49.748;8.490;2023-12-20T13:28:49;5.78;;;2.85;;
51660;SDS011;37741;49.748;8.490;2023-12-20T13:31:14;9.10;;;2.97;;
51660;SDS011;37741;49.748;8.490;2023-12-20T13:33:40;10.38;;;3.03;;
51660;SDS011;37741;49.748;8.490;2023-12-20T13:36:06;9.10;;;3.70;;
51660;SDS011;37741;49.748;8.490;2023-12-20T13:38:32;7.70;;;2.92;;
51660;SDS011;37741;49.748;8.490;2023-12-20T13:40:57;9.50;;;2.38;;
51660;SDS011;37741;49.748;8.490;2023-12-20T13:43:24;8.30;;;2.65;;
51660;SDS011;37741;49.748;8.490;2023-12-20T13:45:49;7.88;;;2.45;;
51660;SDS011;37741;49.748;8.490;2023-12-20T13:48:16;4.28;;;2.10;;
51660;SDS011;37741;49.748;8.490;2023-12-20T13:50:41;7.50;;;2.70;;
51660;SDS011;37741;49.748;8.490;2023-12-20T13:53:07;9.98;;;2.88;;
51660;SDS011;37741;49.748;8.490;2023-12-20T13:55:33;5.18;;;2.47;;
51660;SDS011;37741;49.748;8.490;2023-12-20T13:57:58;7.72;;;2.10;;
51660;SDS011;37741;49.748;8.490;2023-12-20T14:00:24;7.50;;;2.33;;
51660;SDS011;37741;49.748;8.490;2023-12-20T14:02:49;7.68;;;2.22;;
51660;SDS011;37741;49.748;8.490;2023-12-20T14:05:16;9.48;;;1.95;;
51660;SDS011;37741;49.748;8.490;2023-12-20T14:07:44;6.07;;;2.05;;
51660;SDS011;37741;49.748;8.490;2023-12-20T14:10:11;7.95;;;2.00;;
51660;SDS011;37741;49.748;8.490;2023-12-20T14:12:38;10.98;;;2.60;;
51660;SDS011;37741;49.748;8.490;2023-12-20T14:15:04;9.10;;;2.28;;
51660;SDS011;37741;49.748;8.490;2023-12-20T14:17:34;6.53;;;2.67;;
51660;SDS011;37741;49.748;8.490;2023-12-20T14:20:00;7.38;;;2.40;;
51660;SDS011;37741;49.748;8.490;2023-12-20T14:22:25;6.30;;;1.83;;
51660;SDS011;37741;49.748;8.490;2023-12-20T14:24:51;7.55;;;2.53;;
51660;SDS011;37741;49.748;8.490;2023-12-20T14:27:17;7.55;;;1.92;;
51660;SDS011;37741;49.748;8.490;2023-12-20T14:29:42;6.45;;;1.90;;
51660;SDS011;37741;49.748;8.490;2023-12-20T14:32:08;4.60;;;1.85;;
51660;SDS011;37741;49.748;8.490;2023-12-20T14:34:33;9.13;;;2.42;;
51660;SDS011;37741;49.748;8.490;2023-12-20T14:36:59;5.40;;;1.65;;
51660;SDS011;37741;49.748;8.490;2023-12-20T14:39:25;6.65;;;2.20;;
51660;SDS011;37741;49.748;8.490;2023-12-20T14:41:50;7.53;;;2.55;;
51660;SDS011;37741;49.748;8.490;2023-12-20T14:44:16;6.50;;;2.75;;
51660;SDS011;37741;49.748;8.490;2023-12-20T14:46:42;6.43;;;2.25;;
51660;SDS011;37741;49.748;8.490;2023-12-20T14:49:08;6.63;;;2.05;;
51660;SDS011;37741;49.748;8.490;2023-12-20T14:51:33;8.48;;;1.77;;